Terminal Aerodrome Forecast
Issued by NWS

Home | Current Version | Previous Version | Text Only | Print | Product List | Glossary On
Versions: 1 2 3 4 5 6 7 8 9 10 11 12 13 14 15 16 17 18 19 20 21 22 23
508
FTUS41 KAKQ 291739
TAFPHF
TAF
KPHF 291739Z 2918/3018 27004KT P6SM SCT030
     FM292000 08006KT P6SM SCT040
     FM292300 11006KT P6SM BKN060
     FM300600 11006KT P6SM BKN015=

USA.gov is the U.S. government's official web portal to all federal, state and local government web resources and services.